Time;durP1;ratioP1;P1;durP2;ratioP2;P2;SDS_P1;SDS_P2;PMS_P1;PMS_P2;Temp;Humidity;BMP_temperature;BMP_pressure;BME280_temperature;BME280_humidity;BME280_pressure;Samples;Min_cycle;Max_cycle;Signal;HPM_P1;HPM_P2
2023/04/10 00:00:47;;;;;;;1999.90;999.90;;;28.70;67.10;;;;;;5028138;28;20033;-67
2023/04/10 00:03:16;;;;;;;1999.90;999.90;;;28.60;67.50;;;;;;5027267;28;20029;-68
2023/04/10 00:05:43;;;;;;;1999.90;999.90;;;28.60;66.30;;;;;;5029397;28;20037;-68
2023/04/10 00:08:11;;;;;;;1999.90;999.90;;;28.80;66.70;;;;;;5032629;28;20463;-68
2023/04/10 00:10:38;;;;;;;1999.90;999.90;;;29.00;67.30;;;;;;5036374;28;20040;-67
2023/04/10 00:13:06;;;;;;;1999.90;999.90;;;29.00;66.80;;;;;;5023728;28;20563;-67
2023/04/10 00:15:33;;;;;;;1999.90;999.90;;;29.20;67.20;;;;;;5034234;28;20068;-68
2023/04/10 00:18:00;;;;;;;1999.90;999.90;;;29.40;66.20;;;;;;5027936;28;20025;-68
2023/04/10 00:20:27;;;;;;;1999.90;999.90;;;29.40;67.00;;;;;;5031708;28;20020;-68
2023/04/10 00:22:55;;;;;;;1999.90;999.90;;;29.20;65.20;;;;;;5037359;28;20033;-68
2023/04/10 00:25:22;;;;;;;1999.90;999.90;;;29.20;65.60;;;;;;5041292;28;20072;-68
2023/04/10 00:27:50;;;;;;;1999.90;999.90;;;29.30;65.10;;;;;;5033384;28;20082;-68
2023/04/10 00:30:17;;;;;;;1999.90;999.90;;;29.30;65.00;;;;;;5033063;28;20033;-69
2023/04/10 00:32:44;;;;;;;1999.90;999.90;;;29.30;64.90;;;;;;5020309;28;20026;-69
2023/04/10 00:35:12;;;;;;;1999.90;999.90;;;29.50;64.90;;;;;;5029411;28;20458;-69
2023/04/10 00:37:39;;;;;;;1999.90;999.90;;;29.20;63.90;;;;;;5030654;28;20043;-69
2023/04/10 00:40:07;;;;;;;1999.90;999.90;;;29.00;65.80;;;;;;5039057;28;20307;-71
2023/04/10 00:42:35;;;;;;;1999.90;999.90;;;29.10;66.20;;;;;;5038528;28;20152;-71
2023/04/10 00:45:02;;;;;;;1999.90;999.90;;;29.20;65.60;;;;;;5029188;28;20056;-71
2023/04/10 00:47:30;;;;;;;1999.90;999.90;;;29.20;66.20;;;;;;5032455;28;20068;-69
2023/04/10 00:49:58;;;;;;;1999.90;999.90;;;29.60;64.80;;;;;;5035937;28;20090;-69
2023/04/10 00:52:26;;;;;;;1999.90;999.90;;;29.50;64.20;;;;;;5034563;28;20029;-69
2023/04/10 00:54:53;;;;;;;1999.90;999.90;;;29.40;65.00;;;;;;5032144;28;20366;-70
2023/04/10 00:57:21;;;;;;;1999.90;999.90;;;29.60;64.20;;;;;;5032213;28;20048;-69
2023/04/10 00:59:50;;;;;;;1999.90;999.90;;;29.80;64.50;;;;;;5030062;28;20505;-69
2023/04/10 01:02:21;;;;;;;1999.90;999.90;;;29.80;65.50;;;;;;5027451;28;20041;-70
2023/04/10 01:04:48;;;;;;;1999.90;999.90;;;29.80;62.80;;;;;;5029562;28;20045;-69
2023/04/10 01:07:28;;;;;;;1999.90;999.90;;;29.80;62.60;;;;;;5034636;28;20014;-68
2023/04/10 01:10:22;;;;;;;1999.90;999.90;;;29.70;63.70;;;;;;5034334;28;20040;-70
2023/04/10 01:13:14;;;;;;;1999.90;999.90;;;29.00;62.60;;;;;;5033808;28;20073;-68
2023/04/10 01:16:09;;;;;;;1999.90;999.90;;;27.30;64.10;;;;;;5036042;28;20025;-69
2023/04/10 01:18:41;;;;;;;1999.90;999.90;;;27.40;66.10;;;;;;5023557;28;20046;-68
2023/04/10 01:21:10;;;;;;;1999.90;999.90;;;28.20;64.80;;;;;;5029625;28;20353;-68
2023/04/10 01:23:41;;;;;;;1999.90;999.90;;;28.70;65.60;;;;;;5028746;28;20032;-68
2023/04/10 01:26:13;;;;;;;1999.90;999.90;;;29.30;65.60;;;;;;5031982;28;20053;-71
2023/04/10 01:29:06;;;;;;;1999.90;999.90;;;29.50;64.20;;;;;;5033336;28;20107;-73
2023/04/10 01:31:54;;;;;;;1999.90;999.90;;;29.60;64.10;;;;;;5027262;28;20484;-71
2023/04/10 01:34:30;;;;;;;1999.90;999.90;;;29.60;64.10;;;;;;5031384;28;20048;-72
2023/04/10 01:37:22;;;;;;;1999.90;999.90;;;29.60;63.60;;;;;;5028532;28;20094;-73
2023/04/10 01:40:00;;;;;;;1999.90;999.90;;;29.50;63.50;;;;;;5027038;28;20033;-70
2023/04/10 01:42:32;;;;;;;1999.90;999.90;;;29.20;63.90;;;;;;5032484;28;20473;-73
2023/04/10 01:45:00;;;;;;;1999.90;999.90;;;28.40;62.50;;;;;;5034235;28;20045;-72
2023/04/10 01:47:28;;;;;;;1999.90;999.90;;;28.30;64.80;;;;;;5029943;28;20052;-71
2023/04/10 01:49:58;;;;;;;1999.90;999.90;;;28.20;62.00;;;;;;5043620;28;20029;-71
2023/04/10 01:52:27;;;;;;;1999.90;999.90;;;28.40;63.50;;;;;;5038428;28;20021;-71
2023/04/10 01:54:55;;;;;;;1999.90;999.90;;;28.50;62.80;;;;;;5034339;28;20036;-71
2023/04/10 01:57:23;;;;;;;1999.90;999.90;;;27.90;63.10;;;;;;5033567;28;20029;-72
2023/04/10 01:59:50;;;;;;;1999.90;999.90;;;28.00;64.50;;;;;;5034825;28;20108;-72
2023/04/10 02:02:17;;;;;;;1999.90;999.90;;;28.20;64.10;;;;;;5034331;28;20484;-72
2023/04/10 02:04:50;;;;;;;1999.90;999.90;;;28.10;62.80;;;;;;5034349;28;20044;-71
2023/04/10 02:07:36;;;;;;;1999.90;999.90;;;28.30;65.30;;;;;;5026309;28;20431;-71
2023/04/10 02:10:08;;;;;;;;;;;28.50;63.10;;;;;;5034731;28;20523;-71
2023/04/10 02:12:54;;;;;;;1999.90;999.90;;;28.70;63.60;;;;;;5030736;28;20000;-73
2023/04/10 02:15:23;;;;;;;1999.90;999.90;;;28.90;62.30;;;;;;5033781;28;20108;-73
2023/04/10 02:17:52;;;;;;;1999.90;999.90;;;28.90;62.40;;;;;;5036978;28;20032;-73
2023/04/10 02:20:21;;;;;;;1999.90;999.90;;;28.90;62.60;;;;;;5032377;28;20040;-71
2023/04/10 02:22:49;;;;;;;1999.90;999.90;;;28.80;62.30;;;;;;5033549;28;20044;-71
2023/04/10 02:25:16;;;;;;;1999.90;999.90;;;28.90;61.70;;;;;;5029934;28;20033;-72
2023/04/10 02:27:44;;;;;;;1999.90;999.90;;;28.80;61.10;;;;;;5035990;28;20045;-73
2023/04/10 02:30:11;;;;;;;1999.90;999.90;;;28.30;59.40;;;;;;5035309;28;20099;-72
2023/04/10 02:32:39;;;;;;;1999.90;999.90;;;28.20;61.20;;;;;;5039109;28;20711;-72
2023/04/10 02:35:06;;;;;;;1999.90;999.90;;;28.30;63.10;;;;;;5032989;28;20484;-71
2023/04/10 02:37:35;;;;;;;1999.90;999.90;;;28.40;61.50;;;;;;5032664;28;20485;-72
2023/04/10 02:40:02;;;;;;;1999.90;999.90;;;28.50;62.10;;;;;;5035679;28;20078;-71
2023/04/10 02:42:29;;;;;;;1999.90;999.90;;;28.30;63.90;;;;;;5030782;28;20503;-72
2023/04/10 02:44:57;;;;;;;1999.90;999.90;;;28.10;62.00;;;;;;5034627;28;20033;-71
2023/04/10 02:47:24;;;;;;;1999.90;999.90;;;27.30;61.30;;;;;;5032400;28;20461;-72
2023/04/10 02:49:52;;;;;;;1999.90;999.90;;;27.30;62.50;;;;;;5036828;28;20096;-73
2023/04/10 02:52:19;;;;;;;1999.90;999.90;;;27.10;63.60;;;;;;5034164;28;20049;-74
2023/04/10 02:54:47;;;;;;;1999.90;999.90;;;26.70;63.80;;;;;;5037720;28;20038;-72
2023/04/10 02:57:14;;;;;;;1999.90;999.90;;;26.50;62.00;;;;;;5031030;28;20038;-71
2023/04/10 02:59:42;;;;;;;1999.90;999.90;;;26.50;60.20;;;;;;5032815;28;20025;-72
2023/04/10 03:02:09;;;;;;;1999.90;999.90;;;26.50;62.10;;;;;;5035802;28;20451;-72
2023/04/10 03:04:37;;;;;;;1999.90;999.90;;;27.00;60.90;;;;;;5034521;28;20021;-70
2023/04/10 03:07:04;;;;;;;1999.90;999.90;;;27.30;60.90;;;;;;5029977;28;20029;-70
2023/04/10 03:09:31;;;;;;;1999.90;999.90;;;27.00;58.10;;;;;;5043615;28;20032;-72
2023/04/10 03:11:59;;;;;;;1999.90;999.90;;;26.40;58.40;;;;;;5031845;28;20380;-70
2023/04/10 03:14:26;;;;;;;1999.90;999.90;;;26.40;61.20;;;;;;5030628;28;20030;-71
2023/04/10 03:16:53;;;;;;;1999.90;999.90;;;26.70;61.80;;;;;;5025779;28;20032;-71
2023/04/10 03:19:21;;;;;;;1999.90;999.90;;;27.10;60.50;;;;;;5027998;28;20033;-71
2023/04/10 03:21:48;;;;;;;1999.90;999.90;;;27.40;59.80;;;;;;5033501;28;20144;-69
2023/04/10 03:24:15;;;;;;;1999.90;999.90;;;27.70;62.10;;;;;;5029198;28;20037;-70
2023/04/10 03:26:42;;;;;;;1999.90;999.90;;;27.90;61.30;;;;;;5030512;28;20051;-71
2023/04/10 03:29:10;;;;;;;1999.90;999.90;;;28.00;61.20;;;;;;5033025;28;20027;-70
2023/04/10 03:31:37;;;;;;;1999.90;999.90;;;28.10;59.20;;;;;;5030297;28;20032;-71
2023/04/10 03:34:05;;;;;;;1999.90;999.90;;;28.00;58.10;;;;;;5031243;28;20037;-72
2023/04/10 03:36:32;;;;;;;1999.90;999.90;;;27.90;60.00;;;;;;5028816;28;20032;-71
2023/04/10 03:38:59;;;;;;;1999.90;999.90;;;27.70;58.70;;;;;;5025893;28;20029;-71
2023/04/10 03:41:27;;;;;;;1999.90;999.90;;;27.60;59.40;;;;;;5027424;28;20033;-71
2023/04/10 03:43:54;;;;;;;1999.90;999.90;;;27.50;60.60;;;;;;5032514;28;20038;-72
2023/04/10 03:46:21;;;;;;;1999.90;999.90;;;27.50;58.80;;;;;;5028217;28;20029;-72
2023/04/10 03:48:50;;;;;;;1999.90;999.90;;;27.40;57.80;;;;;;5033584;28;20104;-74
2023/04/10 03:51:17;;;;;;;1999.90;999.90;;;27.30;60.70;;;;;;5030893;28;20025;-71
2023/04/10 03:53:44;;;;;;;1999.90;999.90;;;27.30;59.70;;;;;;5033048;28;20037;-72
2023/04/10 03:56:12;;;;;;;1999.90;999.90;;;27.30;61.00;;;;;;5031386;28;20030;-73
2023/04/10 03:58:39;;;;;;;1999.90;999.90;;;27.30;59.20;;;;;;5032679;28;20039;-72
2023/04/10 04:01:07;;;;;;;1999.90;999.90;;;27.40;59.80;;;;;;5031555;28;20500;-72
2023/04/10 04:03:34;;;;;;;1999.90;999.90;;;27.30;59.40;;;;;;5032376;28;20036;-74
2023/04/10 04:06:03;;;;;;;1999.90;999.90;;;27.20;58.50;;;;;;5034714;28;20041;-71
2023/04/10 04:08:30;;;;;;;1999.90;999.90;;;27.00;58.00;;;;;;5038234;28;20040;-72
2023/04/10 04:10:57;;;;;;;1999.90;999.90;;;27.00;58.80;;;;;;5036503;28;20028;-72
2023/04/10 04:13:24;;;;;;;1999.90;999.90;;;26.90;58.70;;;;;;5032314;28;20120;-71
2023/04/10 04:15:52;;;;;;;1999.90;999.90;;;26.80;57.50;;;;;;5031619;28;20017;-71
2023/04/10 04:18:19;;;;;;;1999.90;999.90;;;26.80;59.80;;;;;;5031625;28;20029;-69
2023/04/10 04:20:47;;;;;;;1999.90;999.90;;;26.80;59.70;;;;;;5031682;28;20029;-70
2023/04/10 04:23:16;;;;;;;1999.90;999.90;;;26.80;61.40;;;;;;5030894;28;20056;-69
2023/04/10 04:25:43;;;;;;;1999.90;999.90;;;26.80;61.00;;;;;;5027982;28;20040;-68
2023/04/10 04:28:12;;;;;;;1999.90;999.90;;;26.70;59.40;;;;;;5021758;28;20109;-70
2023/04/10 04:30:39;;;;;;;1999.90;999.90;;;26.40;59.30;;;;;;5026192;28;20562;-70
2023/04/10 04:33:07;;;;;;;1999.90;999.90;;;26.30;59.80;;;;;;5029291;28;20938;-71
2023/04/10 04:35:34;;;;;;;1999.90;999.90;;;26.10;59.60;;;;;;5028276;28;20048;-70
2023/04/10 04:38:01;;;;;;;1999.90;999.90;;;26.00;60.90;;;;;;5031097;28;20064;-71
2023/04/10 04:40:29;;;;;;;1999.90;999.90;;;26.00;60.60;;;;;;5031233;28;20029;-70
2023/04/10 04:42:56;;;;;;;1999.90;999.90;;;26.00;60.00;;;;;;5031816;28;20140;-70
2023/04/10 04:45:23;;;;;;;1999.90;999.90;;;25.90;60.30;;;;;;5026438;28;20034;-69
2023/04/10 04:47:51;;;;;;;1999.90;999.90;;;25.90;60.10;;;;;;5019577;28;20071;-70
2023/04/10 04:50:18;;;;;;;1999.90;999.90;;;25.80;60.00;;;;;;5033358;28;20432;-72
2023/04/10 04:52:45;;;;;;;1999.90;999.90;;;25.60;61.00;;;;;;5029739;28;20580;-70
2023/04/10 04:55:13;;;;;;;1999.90;999.90;;;25.50;61.30;;;;;;5032954;28;20410;-69
2023/04/10 04:57:40;;;;;;;1999.90;999.90;;;25.50;61.20;;;;;;5023167;28;20050;-69
2023/04/10 05:00:08;;;;;;;1999.90;999.90;;;25.40;61.10;;;;;;5027859;28;20064;-71
2023/04/10 05:02:35;;;;;;;1999.90;999.90;;;25.30;61.30;;;;;;5034861;28;20444;-69
2023/04/10 05:05:03;;;;;;;1999.90;999.90;;;25.30;61.80;;;;;;5029368;28;20670;-70
2023/04/10 05:07:31;;;;;;;1999.90;999.90;;;25.20;61.30;;;;;;5029675;28;20388;-71
2023/04/10 05:09:59;;;;;;;1999.90;999.90;;;25.10;61.30;;;;;;5033292;28;20026;-70
2023/04/10 05:12:26;;;;;;;1999.90;999.90;;;25.00;62.00;;;;;;5031374;28;20052;-71
2023/04/10 05:14:54;;;;;;;1999.90;999.90;;;24.90;61.10;;;;;;5031127;28;20053;-72
2023/04/10 05:17:21;;;;;;;1999.90;999.90;;;24.90;61.50;;;;;;5031339;28;20480;-70
2023/04/10 05:19:48;;;;;;;1999.90;999.90;;;24.90;61.20;;;;;;5030748;28;20402;-70
2023/04/10 05:22:15;;;;;;;1999.90;999.90;;;24.80;61.90;;;;;;5032559;28;20029;-71
2023/04/10 05:24:43;;;;;;;1999.90;999.90;;;24.70;61.60;;;;;;5034746;28;20033;-69
2023/04/10 05:27:10;;;;;;;1999.90;999.90;;;24.60;62.40;;;;;;5034958;28;20797;-70
2023/04/10 05:29:37;;;;;;;1999.90;999.90;;;24.50;63.10;;;;;;5034302;28;20018;-69
2023/04/10 05:32:05;;;;;;;1999.90;999.90;;;24.50;62.40;;;;;;5027719;28;20023;-69
2023/04/10 05:34:32;;;;;;;1999.90;999.90;;;24.50;62.10;;;;;;5031000;28;20542;-70
2023/04/10 05:36:59;;;;;;;1999.90;999.90;;;24.40;62.30;;;;;;5024382;28;20033;-69
2023/04/10 05:39:27;;;;;;;1999.90;999.90;;;24.40;62.70;;;;;;5032321;28;20036;-69
2023/04/10 05:41:55;;;;;;;1999.90;999.90;;;24.30;62.90;;;;;;5029991;28;20104;-69
2023/04/10 05:44:22;;;;;;;1999.90;999.90;;;24.20;62.60;;;;;;5029253;28;20037;-70
2023/04/10 05:46:49;;;;;;;1999.90;999.90;;;24.10;63.20;;;;;;5028855;28;20057;-70
2023/04/10 05:49:17;;;;;;;1999.90;999.90;;;24.00;63.10;;;;;;5035748;28;20575;-70
2023/04/10 05:51:49;;;;;;;1999.90;999.90;;;23.90;62.80;;;;;;5033352;28;20044;-69
2023/04/10 05:54:16;;;;;;;1999.90;999.90;;;23.90;63.40;;;;;;5032029;28;20089;-68
2023/04/10 05:56:44;;;;;;;1999.90;999.90;;;23.80;63.00;;;;;;5027816;28;20056;-70
2023/04/10 05:59:12;;;;;;;1999.90;999.90;;;23.80;64.20;;;;;;5034946;28;20430;-70
2023/04/10 06:01:40;;;;;;;1999.90;999.90;;;23.70;64.00;;;;;;5034162;28;20091;-71
2023/04/10 06:04:07;;;;;;;1999.90;999.90;;;23.70;63.70;;;;;;5035043;28;20064;-69
2023/04/10 06:06:35;;;;;;;1999.90;999.90;;;23.60;63.40;;;;;;5030144;28;20072;-69
2023/04/10 06:09:03;;;;;;;1999.90;999.90;;;23.50;64.20;;;;;;5036800;28;20563;-69
2023/04/10 06:11:30;;;;;;;1999.90;999.90;;;23.50;64.40;;;;;;5031474;28;20092;-70
2023/04/10 06:13:58;;;;;;;1999.90;999.90;;;23.50;64.80;;;;;;5037176;28;20033;-69
2023/04/10 06:16:25;;;;;;;1999.90;999.90;;;23.40;63.10;;;;;;5033200;28;20109;-70
2023/04/10 06:18:53;;;;;;;1999.90;999.90;;;23.30;63.40;;;;;;5034598;28;20037;-69
2023/04/10 06:21:20;;;;;;;1999.90;999.90;;;23.20;63.60;;;;;;5031702;28;20037;-70
2023/04/10 06:23:48;;;;;;;1999.90;999.90;;;23.00;63.10;;;;;;5027231;28;20045;-71
2023/04/10 06:26:15;;;;;;;1999.90;999.90;;;22.90;63.50;;;;;;5027703;28;20037;-70
2023/04/10 06:28:43;;;;;;;1999.90;999.90;;;22.80;63.60;;;;;;5030850;28;20032;-72
2023/04/10 06:31:11;;;;;;;1999.90;999.90;;;22.70;64.50;;;;;;5029466;28;20113;-69
2023/04/10 06:33:40;;;;;;;1999.90;999.90;;;22.60;63.80;;;;;;5028220;28;20498;-69
2023/04/10 06:36:07;;;;;;;1999.90;999.90;;;22.50;64.80;;;;;;5031063;28;20119;-69
2023/04/10 06:38:36;;;;;;;1999.90;999.90;;;22.30;65.00;;;;;;5025330;28;20030;-69
2023/04/10 06:41:05;;;;;;;1999.90;999.90;;;22.20;65.80;;;;;;5032696;28;20037;-68
2023/04/10 06:43:36;;;;;;;1999.90;999.90;;;22.10;65.90;;;;;;5021247;28;20033;-69
2023/04/10 06:46:04;;;;;;;1999.90;999.90;;;21.90;65.90;;;;;;5026689;28;20120;-68
2023/04/10 06:48:34;;;;;;;1999.90;999.90;;;21.70;66.10;;;;;;5030686;28;20120;-68
2023/04/10 06:51:02;;;;;;;1999.90;999.90;;;21.60;66.00;;;;;;5034168;28;20024;-69
2023/04/10 06:53:29;;;;;;;1999.90;999.90;;;21.50;66.30;;;;;;5041645;28;20037;-69
2023/04/10 06:55:57;;;;;;;1999.90;999.90;;;21.30;67.20;;;;;;5030554;28;20914;-69
2023/04/10 06:58:25;;;;;;;1999.90;999.90;;;21.20;67.30;;;;;;5032811;28;20534;-69
2023/04/10 07:00:53;;;;;;;1999.90;999.90;;;21.00;67.70;;;;;;5032551;28;20025;-70
2023/04/10 07:03:20;;;;;;;1999.90;999.90;;;21.00;68.00;;;;;;5032920;28;20029;-69
2023/04/10 07:05:47;;;;;;;1999.90;999.90;;;20.80;68.60;;;;;;5032751;28;20539;-69
2023/04/10 07:08:15;;;;;;;1999.90;999.90;;;20.70;68.90;;;;;;5033612;28;20503;-69
2023/04/10 07:10:42;;;;;;;1999.90;999.90;;;20.60;68.80;;;;;;5037445;28;20041;-69
2023/04/10 07:13:10;;;;;;;1999.90;999.90;;;20.50;69.40;;;;;;5033310;28;21136;-69
2023/04/10 07:15:37;;;;;;;1999.90;999.90;;;20.40;69.60;;;;;;5031268;28;20082;-68
2023/04/10 07:18:05;;;;;;;1999.90;999.90;;;20.20;69.50;;;;;;5035135;28;20031;-69
2023/04/10 07:20:32;;;;;;;1999.90;999.90;;;20.00;70.00;;;;;;5035857;28;20040;-69
2023/04/10 07:23:00;;;;;;;1999.90;999.90;;;19.80;69.90;;;;;;5031554;28;20076;-69
2023/04/10 07:25:27;;;;;;;1999.90;999.90;;;19.70;70.60;;;;;;5039468;28;20513;-68
2023/04/10 07:27:54;;;;;;;1999.90;999.90;;;19.50;70.60;;;;;;5035178;28;20025;-68
2023/04/10 07:30:22;;;;;;;1999.90;999.90;;;19.30;71.10;;;;;;5034374;28;20037;-70
2023/04/10 07:32:49;;;;;;;1999.90;999.90;;;19.10;71.50;;;;;;5034834;28;20124;-68
2023/04/10 07:35:16;;;;;;;1999.90;999.90;;;19.00;71.80;;;;;;5036152;28;20033;-68
2023/04/10 07:37:44;;;;;;;1999.90;999.90;;;18.90;72.10;;;;;;5035187;28;20033;-71
2023/04/10 07:40:11;;;;;;;1999.90;999.90;;;18.80;72.40;;;;;;5033648;28;20029;-69
2023/04/10 07:42:38;;;;;;;1999.90;999.90;;;18.70;72.80;;;;;;5032721;28;20174;-69
2023/04/10 07:45:06;;;;;;;1999.90;999.90;;;18.60;72.90;;;;;;5035634;28;20128;-69
2023/04/10 07:47:34;;;;;;;1999.90;999.90;;;18.50;73.50;;;;;;5034035;28;20099;-69
2023/04/10 07:50:01;;;;;;;1999.90;999.90;;;18.30;73.60;;;;;;5034782;28;20061;-70
2023/04/10 07:52:29;;;;;;;1999.90;999.90;;;18.30;73.80;;;;;;5030176;28;20147;-70
2023/04/10 07:54:56;;;;;;;1999.90;999.90;;;18.10;74.10;;;;;;5035001;28;20033;-70
2023/04/10 07:57:23;;;;;;;1999.90;999.90;;;18.00;74.30;;;;;;5037820;28;20469;-70
2023/04/10 07:59:51;;;;;;;1999.90;999.90;;;17.90;74.80;;;;;;5034663;28;20029;-69
2023/04/10 08:02:18;;;;;;;1999.90;999.90;;;17.80;75.10;;;;;;5029666;28;20072;-69
2023/04/10 08:04:45;;;;;;;1999.90;999.90;;;17.80;75.20;;;;;;5030869;28;20784;-69
2023/04/10 08:07:12;;;;;;;1999.90;999.90;;;17.70;75.50;;;;;;5028969;28;20025;-69
2023/04/10 08:09:40;;;;;;;1999.90;999.90;;;17.60;75.50;;;;;;5043201;28;20021;-68
2023/04/10 08:12:07;;;;;;;1999.90;999.90;;;17.60;75.80;;;;;;5029295;28;20645;-68
2023/04/10 08:14:34;;;;;;;1999.90;999.90;;;17.50;75.90;;;;;;5027564;28;20037;-70
2023/04/10 08:17:02;;;;;;;1999.90;999.90;;;17.50;76.00;;;;;;5025741;28;20024;-70
2023/04/10 08:19:29;;;;;;;1999.90;999.90;;;17.40;76.40;;;;;;5029229;28;20083;-71
2023/04/10 08:21:56;;;;;;;1999.90;999.90;;;17.40;77.20;;;;;;5026826;28;20094;-70
2023/04/10 08:24:23;;;;;;;1999.90;999.90;;;17.30;77.20;;;;;;5027273;28;21106;-70
2023/04/10 08:26:51;;;;;;;1999.90;999.90;;;17.30;77.20;;;;;;5026286;28;20092;-71
2023/04/10 08:29:18;;;;;;;1999.90;999.90;;;17.20;77.70;;;;;;5039531;28;20032;-69
2023/04/10 08:31:45;;;;;;;1999.90;999.90;;;17.10;77.60;;;;;;5030496;28;20037;-70
2023/04/10 08:34:13;;;;;;;1999.90;999.90;;;17.10;78.30;;;;;;5032602;28;20041;-70
2023/04/10 08:36:40;;;;;;;1999.90;999.90;;;17.00;78.40;;;;;;5026038;28;20069;-69
2023/04/10 08:39:07;;;;;;;1999.90;999.90;;;17.00;78.40;;;;;;5031026;28;20390;-71
2023/04/10 08:41:34;;;;;;;1999.90;999.90;;;16.90;78.60;;;;;;5028218;28;20181;-70
2023/04/10 08:44:02;;;;;;;1999.90;999.90;;;16.90;79.70;;;;;;5035110;28;20014;-70
2023/04/10 08:46:34;;;;;;;1999.90;999.90;;;16.90;80.20;;;;;;5031572;28;20061;-67
2023/04/10 08:49:03;;;;;;;1999.90;999.90;;;16.80;80.70;;;;;;5030333;28;20044;-69
2023/04/10 08:51:45;;;;;;;1999.90;999.90;;;16.70;80.90;;;;;;5030811;28;20022;-71
2023/04/10 08:54:25;;;;;;;1999.90;999.90;;;16.50;81.30;;;;;;5028231;28;20072;-71
2023/04/10 08:56:54;;;;;;;1999.90;999.90;;;16.40;81.60;;;;;;5023305;28;20108;-69
2023/04/10 08:59:24;;;;;;;1999.90;999.90;;;16.30;82.00;;;;;;5028160;28;20418;-70
2023/04/10 09:01:52;;;;;;;1999.90;999.90;;;16.20;81.90;;;;;;5036608;28;20025;-71
2023/04/10 09:04:19;;;;;;;1999.90;999.90;;;16.20;80.90;;;;;;5032386;28;20565;-67
2023/04/10 09:06:47;;;;;;;1999.90;999.90;;;16.20;81.30;;;;;;5034018;28;20088;-67
2023/04/10 09:09:14;;;;;;;1999.90;999.90;;;16.10;81.60;;;;;;5036241;28;20020;-67
2023/04/10 09:11:54;;;;;;;1999.90;999.90;;;16.00;81.70;;;;;;5029141;28;20073;-69
2023/04/10 09:14:29;;;;;;;1999.90;999.90;;;16.00;82.20;;;;;;5028970;28;20598;-69
2023/04/10 09:17:18;;;;;;;1999.90;999.90;;;15.90;82.60;;;;;;5017197;28;20049;-68
2023/04/10 09:19:53;;;;;;;1999.90;999.90;;;15.80;83.00;;;;;;5021876;28;22206;-71
2023/04/10 09:22:40;;;;;;;1999.90;999.90;;;15.80;83.60;;;;;;5030472;28;20515;-71
2023/04/10 09:25:30;;;;;;;1999.90;999.90;;;15.70;83.90;;;;;;5035114;28;20041;-70
2023/04/10 09:28:02;;;;;;;1999.90;999.90;;;15.70;84.00;;;;;;5029155;28;20435;-69
2023/04/10 09:30:42;;;;;;;1999.90;999.90;;;15.60;84.20;;;;;;5022235;28;20038;-72
2023/04/10 09:33:27;;;;;;;1999.90;999.90;;;15.60;84.50;;;;;;5023914;28;20037;-70
2023/04/10 09:36:02;;;;;;;1999.90;999.90;;;15.60;84.60;;;;;;5027351;28;20034;-70
2023/04/10 09:38:30;;;;;;;1999.90;999.90;;;15.60;84.90;;;;;;5032270;28;20032;-70
2023/04/10 09:41:11;;;;;;;1999.90;999.90;;;15.50;85.10;;;;;;5029081;28;20061;-69
2023/04/10 09:43:39;;;;;;;1999.90;999.90;;;15.40;85.40;;;;;;5027889;28;20033;-69
2023/04/10 09:46:06;;;;;;;1999.90;999.90;;;15.40;85.60;;;;;;5017020;28;20531;-70
2023/04/10 09:48:34;;;;;;;1999.90;999.90;;;15.30;85.80;;;;;;5028745;28;21319;-69
2023/04/10 09:51:02;;;;;;;1999.90;999.90;;;15.30;86.20;;;;;;5024671;28;20435;-69
2023/04/10 09:53:30;;;;;;;1999.90;999.90;;;15.20;86.40;;;;;;5025058;28;20041;-71
2023/04/10 09:55:57;;;;;;;1999.90;999.90;;;15.10;86.50;;;;;;5029009;28;20025;-71
2023/04/10 09:58:26;;;;;;;1999.90;999.90;;;15.10;87.10;;;;;;5029914;28;20030;-72
2023/04/10 10:00:54;;;;;;;1999.90;999.90;;;15.10;86.90;;;;;;5024704;28;20044;-72
2023/04/10 10:03:21;;;;;;;1999.90;999.90;;;15.00;87.10;;;;;;5026510;28;20025;-70
2023/04/10 10:05:50;;;;;;;1999.90;999.90;;;15.00;87.30;;;;;;5032008;28;20037;-70
2023/04/10 10:08:19;;;;;;;1999.90;999.90;;;14.90;87.60;;;;;;5029347;28;20025;-71
2023/04/10 10:10:49;;;;;;;1999.90;999.90;;;14.90;88.00;;;;;;5031828;28;20056;-70
2023/04/10 10:13:45;;;;;;;1999.90;999.90;;;14.80;88.80;;;;;;5023995;28;20033;-70
2023/04/10 10:16:16;;;;;;;1999.90;999.90;;;14.80;89.40;;;;;;5022033;28;20021;-70
2023/04/10 10:19:19;;;;;;;1999.90;999.90;;;14.70;90.10;;;;;;5027969;28;20036;-72
2023/04/10 10:21:47;;;;;;;1999.90;999.90;;;14.60;90.60;;;;;;5038501;28;20030;-70
2023/04/10 10:24:18;;;;;;;1999.90;999.90;;;14.50;90.90;;;;;;5028439;28;20349;-70
2023/04/10 10:26:47;;;;;;;1999.90;999.90;;;14.50;91.10;;;;;;5026070;28;20037;-71
2023/04/10 10:29:17;;;;;;;1999.90;999.90;;;14.40;91.50;;;;;;5035034;28;20170;-72
2023/04/10 10:31:46;;;;;;;1999.90;999.90;;;14.40;91.50;;;;;;5024877;28;20495;-72
2023/04/10 10:34:15;;;;;;;1999.90;999.90;;;14.30;91.50;;;;;;5031203;28;20022;-70
2023/04/10 10:36:43;;;;;;;1999.90;999.90;;;14.20;91.80;;;;;;5028826;28;20479;-70
2023/04/10 10:39:21;;;;;;;1999.90;999.90;;;14.20;91.80;;;;;;5030149;28;20029;-70
2023/04/10 10:42:34;;;;;;;1999.90;999.90;;;14.20;91.80;;;;;;5021853;28;20033;-70
2023/04/10 10:45:12;;;;;;;1999.90;999.90;;;14.10;92.00;;;;;;5025882;28;20033;-70
2023/04/10 10:47:51;;;;;;;1999.90;999.90;;;14.10;92.50;;;;;;5028621;28;20048;-70
2023/04/10 10:50:19;;;;;;;1999.90;999.90;;;14.00;92.50;;;;;;5031120;28;20029;-71
2023/04/10 10:52:56;;;;;;;1999.90;999.90;;;14.00;92.40;;;;;;5026129;28;20048;-70
2023/04/10 10:55:23;;;;;;;1999.90;999.90;;;13.90;92.30;;;;;;5028182;28;20106;-70
2023/04/10 10:57:52;;;;;;;1999.90;999.90;;;13.90;92.20;;;;;;5028888;28;20796;-69
2023/04/10 11:00:46;;;;;;;1999.90;999.90;;;13.90;92.20;;;;;;5025535;28;20161;-70
2023/04/10 11:03:13;;;;;;;1999.90;999.90;;;13.90;92.10;;;;;;5027622;28;20040;-70
2023/04/10 11:05:51;;;;;;;1999.90;999.90;;;13.90;92.20;;;;;;5020619;28;20037;-69
2023/04/10 11:08:34;;;;;;;1999.90;999.90;;;13.90;92.30;;;;;;5031347;28;20025;-70
2023/04/10 11:11:04;;;;;;;1999.90;999.90;;;13.90;92.50;;;;;;5034870;28;20045;-70
2023/04/10 11:13:36;;;;;;;1999.90;999.90;;;13.90;92.30;;;;;;5025660;28;20025;-70
2023/04/10 11:16:06;;;;;;;1999.90;999.90;;;13.90;92.40;;;;;;5031940;28;20199;-71
2023/04/10 11:18:49;;;;;;;1999.90;999.90;;;13.80;92.50;;;;;;5037694;28;20048;-71
2023/04/10 11:21:21;;;;;;;1999.90;999.90;;;13.80;92.80;;;;;;5031103;28;20025;-71
2023/04/10 11:23:52;;;;;;;1999.90;999.90;;;13.80;93.10;;;;;;5037048;28;20124;-71
2023/04/10 11:26:35;;;;;;;1999.90;999.90;;;13.80;92.90;;;;;;5029434;28;20092;-71
2023/04/10 11:29:15;;;;;;;1999.90;999.90;;;13.70;93.10;;;;;;5030226;28;20025;-70
2023/04/10 11:31:54;;;;;;;1999.90;999.90;;;13.70;93.00;;;;;;5031590;28;20025;-70
2023/04/10 11:34:22;;;;;;;1999.90;999.90;;;13.70;93.10;;;;;;5028770;28;20109;-70
2023/04/10 11:36:49;;;;;;;1999.90;999.90;;;13.70;93.30;;;;;;5030227;28;20476;-71
2023/04/10 11:39:18;;;;;;;1999.90;999.90;;;13.60;93.90;;;;;;5025899;28;20108;-68
2023/04/10 11:41:48;;;;;;;1999.90;999.90;;;13.60;94.40;;;;;;5025738;28;20123;-70
2023/04/10 11:44:25;;;;;;;1999.90;999.90;;;13.50;94.90;;;;;;5033398;28;20108;-69
2023/04/10 11:46:52;;;;;;;1999.90;999.90;;;13.40;94.90;;;;;;5024705;28;20107;-68
2023/04/10 11:49:25;;;;;;;1999.90;999.90;;;13.40;95.20;;;;;;5033760;28;20029;-68
2023/04/10 11:51:53;;;;;;;1999.90;999.90;;;13.30;95.50;;;;;;5039931;28;20048;-70
2023/04/10 11:54:21;;;;;;;1999.90;999.90;;;13.30;95.60;;;;;;5030746;28;20025;-68
2023/04/10 11:57:01;;;;;;;1999.90;999.90;;;13.20;95.50;;;;;;5029176;28;20090;-68
2023/04/10 11:59:31;;;;;;;1999.90;999.90;;;13.20;95.30;;;;;;5024987;28;20030;-71
2023/04/10 12:02:27;;;;;;;1999.90;999.90;;;13.20;95.50;;;;;;5029677;28;20574;-71
2023/04/10 12:05:00;;;;;;;1999.90;999.90;;;13.20;95.90;;;;;;5028421;28;20467;-70
2023/04/10 12:07:28;;;;;;;1999.90;999.90;;;13.00;96.20;;;;;;5030339;28;20033;-70
2023/04/10 12:09:59;;;;;;;1999.90;999.90;;;13.00;96.10;;;;;;5030554;28;20120;-70
2023/04/10 12:12:36;;;;;;;1999.90;999.90;;;12.90;96.20;;;;;;5035269;28;20476;-70